Terminal Aerodrome Forecast
Issued by NWS

Home | Current Version | Previous Version | Graphics & Text | Print | Product List | Glossary On
Versions: 1 2 3 4 5 6 7 8 9 10 11 12 13 14 15 16 17 18 19 20 21 22 23 24 25 26 27 28 29 30 31 32 33 34
000
FTUS43 KGRB 180500 AAA
TAFRHI
TAF AMD
KRHI 180509Z 1805/1824 04005KT P6SM OVC008
      TEMPO 1805/1809 OVC012
     FM180900 01003KT P6SM BKN012
     FM181200 02002KT P6SM BKN250=

USA.gov is the U.S. government's official web portal to all federal, state and local government web resources and services.